createdAt,value
2023-05-15T00:02:24.690Z,100.00
2023-05-15T00:07:49.682Z,100.00
2023-05-15T00:13:14.821Z,100.00
2023-05-15T00:18:49.740Z,100.00
2023-05-15T00:24:14.525Z,100.00
2023-05-15T00:29:38.591Z,100.00
2023-05-15T00:35:07.604Z,100.00
2023-05-15T00:40:37.571Z,100.00
2023-05-15T00:46:03.557Z,100.00
2023-05-15T00:51:30.662Z,100.00
2023-05-15T00:56:57.592Z,100.00
2023-05-15T01:02:24.657Z,100.00
2023-05-15T01:08:01.579Z,100.00
2023-05-15T01:13:27.574Z,100.00
2023-05-15T01:18:52.588Z,100.00
2023-05-15T01:24:34.575Z,100.00
2023-05-15T01:30:10.582Z,100.00
2023-05-15T01:35:39.817Z,100.00
2023-05-15T01:41:11.592Z,100.00
2023-05-15T01:46:43.761Z,100.00
2023-05-15T01:52:19.586Z,100.00
2023-05-15T01:57:45.585Z,100.00
2023-05-15T02:03:15.670Z,100.00
2023-05-15T02:08:40.613Z,100.00
2023-05-15T02:14:08.626Z,100.00
2023-05-15T02:19:42.791Z,100.00
2023-05-15T02:25:07.576Z,100.00
2023-05-15T02:30:49.621Z,100.00
2023-05-15T02:36:20.619Z,100.00
2023-05-15T02:41:47.619Z,100.00
2023-05-15T02:47:14.602Z,100.00
2023-05-15T02:52:42.636Z,100.00
2023-05-15T02:58:08.908Z,100.00
2023-05-15T03:03:32.658Z,100.00
2023-05-15T03:09:00.628Z,100.00
2023-05-15T03:14:27.562Z,100.00
2023-05-15T03:19:54.615Z,100.00
2023-05-15T03:25:26.984Z,100.00
2023-05-15T03:30:54.477Z,100.00
2023-05-15T03:36:21.646Z,100.00
2023-05-15T03:41:50.407Z,100.00
2023-05-15T03:47:16.635Z,100.00
2023-05-15T03:52:46.647Z,100.00
2023-05-15T03:58:19.376Z,100.00
2023-05-15T04:03:44.745Z,100.00
2023-05-15T04:09:11.635Z,100.00
2023-05-15T04:14:39.651Z,100.00
2023-05-15T04:20:03.647Z,100.00
2023-05-15T04:25:30.643Z,100.00
2023-05-15T04:30:58.679Z,100.00
2023-05-15T04:36:23.668Z,100.00
2023-05-15T04:41:47.668Z,100.00
2023-05-15T04:47:15.663Z,100.00
2023-05-15T04:52:39.691Z,100.00
2023-05-15T04:58:04.665Z,100.00
2023-05-15T05:03:31.710Z,100.00
2023-05-15T05:08:56.677Z,100.00
2023-05-15T05:14:20.668Z,100.00
2023-05-15T05:19:54.708Z,100.00
2023-05-15T05:25:20.700Z,100.00
2023-05-15T05:30:44.679Z,100.00
2023-05-15T05:36:12.686Z,100.00
2023-05-15T05:41:36.712Z,100.00
2023-05-15T05:47:01.714Z,100.00
2023-05-15T05:52:28.686Z,100.00
2023-05-15T05:57:53.700Z,100.00
2023-05-15T06:03:17.861Z,100.00
2023-05-15T06:08:45.736Z,100.00
2023-05-15T06:14:09.748Z,100.00
2023-05-15T06:19:34.862Z,100.00
2023-05-15T06:25:03.291Z,100.00
2023-05-15T06:30:30.459Z,100.00
2023-05-15T06:35:55.756Z,100.00
2023-05-15T06:41:23.741Z,100.00
2023-05-15T06:46:49.746Z,100.00
2023-05-15T06:52:16.382Z,100.00
2023-05-15T06:57:44.730Z,100.00
2023-05-15T07:03:10.935Z,100.00
2023-05-15T07:08:37.033Z,100.00
2023-05-15T07:14:05.739Z,100.00
2023-05-15T07:19:37.794Z,100.00
2023-05-15T07:25:11.738Z,100.00
2023-05-15T07:30:40.050Z,100.00
2023-05-15T07:36:05.759Z,100.00
2023-05-15T07:41:33.744Z,100.00
2023-05-15T07:47:00.892Z,100.00
2023-05-15T07:52:25.761Z,100.00
2023-05-15T07:57:53.772Z,100.00
2023-05-15T08:03:23.095Z,100.00
2023-05-15T08:08:49.765Z,100.00
2023-05-15T08:14:14.788Z,100.00
2023-05-15T08:19:41.785Z,100.00
2023-05-15T08:25:06.788Z,100.00
2023-05-15T08:30:32.776Z,100.00
2023-05-15T08:36:00.798Z,100.00
2023-05-15T08:41:40.072Z,100.00
2023-05-15T08:47:06.915Z,100.00
2023-05-15T08:52:33.800Z,100.00
2023-05-15T08:57:59.903Z,100.00
2023-05-15T09:03:30.827Z,100.00
2023-05-15T09:08:59.845Z,100.00
2023-05-15T09:14:23.780Z,100.00
2023-05-15T09:19:49.866Z,100.00
2023-05-15T09:25:16.855Z,100.00
2023-05-15T09:30:41.844Z,100.00
2023-05-15T09:36:05.832Z,100.00
2023-05-15T09:41:37.822Z,100.00
2023-05-15T09:47:01.880Z,100.00
2023-05-15T09:52:26.826Z,100.00
2023-05-15T09:57:53.840Z,100.00
2023-05-15T10:03:19.883Z,100.00
2023-05-15T10:08:43.843Z,100.00
2023-05-15T10:14:11.845Z,100.00
2023-05-15T10:19:50.414Z,100.00
2023-05-15T10:25:27.863Z,100.00
2023-05-15T10:31:03.877Z,100.00
2023-05-15T10:36:28.850Z,100.00
2023-05-15T10:41:55.858Z,100.00
2023-05-15T10:47:24.976Z,100.00
2023-05-15T10:52:49.876Z,100.00
2023-05-15T10:58:18.850Z,100.00
2023-05-15T11:03:55.250Z,100.00
2023-05-15T11:09:47.954Z,100.00
2023-05-15T11:15:35.880Z,100.00
2023-05-15T11:21:18.881Z,100.00
2023-05-15T11:26:49.928Z,100.00
2023-05-15T11:32:40.942Z,100.00
2023-05-15T11:38:08.871Z,100.00
2023-05-15T11:43:34.914Z,100.00
2023-05-15T11:49:00.911Z,100.00
2023-05-15T11:54:29.929Z,100.00
2023-05-15T11:59:53.918Z,100.00
2023-05-15T12:05:19.932Z,96.64
2023-05-15T12:10:47.986Z,100.00
2023-05-15T12:16:13.997Z,93.71
2023-05-15T12:21:49.942Z,93.98
2023-05-15T12:27:18.981Z,94.30
2023-05-15T12:32:43.976Z,90.71
2023-05-15T12:38:08.992Z,98.17
2023-05-15T12:43:38.941Z,100.00
2023-05-15T12:49:03.941Z,95.19
2023-05-15T12:54:32.949Z,95.15
2023-05-15T13:00:00.982Z,100.00
2023-05-15T13:05:26.960Z,100.00
2023-05-15T13:10:52.982Z,100.00
2023-05-15T13:16:22.037Z,98.84
2023-05-15T13:21:46.974Z,93.24
2023-05-15T13:27:11.964Z,95.41
2023-05-15T13:32:40.061Z,89.80
2023-05-15T13:38:03.995Z,90.05
2023-05-15T13:43:28.973Z,81.42
2023-05-15T13:48:55.991Z,77.25
2023-05-15T13:54:20.990Z,76.68
2023-05-15T13:59:44.982Z,73.80
2023-05-15T14:05:13.029Z,70.30
2023-05-15T14:10:36.997Z,70.48
2023-05-15T14:16:02.032Z,69.16
2023-05-15T14:21:28.998Z,79.62
2023-05-15T14:26:55.344Z,71.07
2023-05-15T14:32:20.111Z,76.34
2023-05-15T14:37:48.012Z,79.32
2023-05-15T14:43:13.038Z,72.29
2023-05-15T14:48:38.043Z,69.32
2023-05-15T14:54:06.015Z,73.00
2023-05-15T14:59:31.040Z,70.66
2023-05-15T15:04:55.048Z,66.00
2023-05-15T15:10:23.277Z,61.30
2023-05-15T15:15:49.164Z,62.22
2023-05-15T15:21:16.099Z,62.14
2023-05-15T15:26:44.064Z,61.28
2023-05-15T15:32:09.071Z,65.21
2023-05-15T15:37:33.040Z,66.92
2023-05-15T15:43:01.044Z,72.57
2023-05-15T15:48:26.084Z,75.55
2023-05-15T15:53:51.122Z,78.11
2023-05-15T15:59:18.045Z,79.66
2023-05-15T16:04:43.120Z,76.58
2023-05-15T16:10:12.446Z,72.93
2023-05-15T16:15:41.087Z,67.42
2023-05-15T16:21:05.163Z,67.33
2023-05-15T16:26:30.109Z,61.74
2023-05-15T16:31:58.174Z,58.04
2023-05-15T16:37:23.104Z,57.28
2023-05-15T16:42:51.096Z,59.83
2023-05-15T16:48:19.120Z,62.06
2023-05-15T16:53:43.123Z,64.33
2023-05-15T16:59:08.111Z,68.21
2023-05-15T17:04:35.913Z,70.91
2023-05-15T17:10:02.113Z,84.32
2023-05-15T17:15:28.281Z,99.18
2023-05-15T17:20:56.427Z,100.00
2023-05-15T17:26:20.722Z,100.00
2023-05-15T17:31:48.197Z,100.00
2023-05-15T17:37:15.569Z,100.00
2023-05-15T17:42:41.129Z,100.00
2023-05-15T17:48:11.009Z,100.00
2023-05-15T17:53:39.147Z,100.00
2023-05-15T17:59:04.416Z,100.00
2023-05-15T18:04:30.167Z,100.00
2023-05-15T18:09:57.684Z,100.00
2023-05-15T18:15:23.248Z,100.00
2023-05-15T18:20:48.453Z,100.00
2023-05-15T18:26:16.185Z,100.00
2023-05-15T18:31:42.241Z,100.00
2023-05-15T18:37:07.167Z,100.00
2023-05-15T18:42:35.207Z,100.00
2023-05-15T18:48:03.283Z,100.00
2023-05-15T18:53:28.192Z,100.00
2023-05-15T18:58:49.726Z,100.00
2023-05-15T19:04:23.946Z,100.00
2023-05-15T19:09:49.240Z,100.00
2023-05-15T19:15:20.206Z,100.00
2023-05-15T19:20:44.184Z,100.00
2023-05-15T19:26:09.184Z,100.00
2023-05-15T19:31:36.218Z,100.00
2023-05-15T19:37:03.216Z,100.00
2023-05-15T19:42:27.262Z,100.00
2023-05-15T19:47:55.284Z,100.00
2023-05-15T19:53:19.232Z,100.00
2023-05-15T19:58:44.228Z,100.00
2023-05-15T20:04:12.312Z,100.00
2023-05-15T20:09:39.388Z,100.00
2023-05-15T20:15:04.391Z,100.00
2023-05-15T20:20:32.316Z,100.00
2023-05-15T20:26:05.279Z,100.00
2023-05-15T20:31:30.307Z,100.00
2023-05-15T20:36:59.265Z,100.00
2023-05-15T20:42:24.275Z,100.00
2023-05-15T20:47:48.317Z,100.00
2023-05-15T20:53:16.265Z,100.00
2023-05-15T20:58:40.274Z,100.00
2023-05-15T21:04:07.590Z,100.00
2023-05-15T21:09:35.280Z,100.00
2023-05-15T21:14:54.282Z,100.00
2023-05-15T21:20:20.397Z,100.00
2023-05-15T21:25:55.295Z,100.00
2023-05-15T21:31:21.288Z,100.00
2023-05-15T21:36:47.437Z,100.00
2023-05-15T21:42:15.277Z,100.00
2023-05-15T21:47:41.322Z,100.00
2023-05-15T21:53:06.307Z,100.00
2023-05-15T21:58:34.350Z,100.00
2023-05-15T22:03:59.352Z,100.00
2023-05-15T22:09:24.575Z,100.00
2023-05-15T22:14:57.473Z,100.00
2023-05-15T22:20:25.549Z,100.00
2023-05-15T22:25:49.320Z,100.00
2023-05-15T22:31:17.367Z,100.00
2023-05-15T22:36:42.296Z,100.00
2023-05-15T22:42:07.312Z,100.00
2023-05-15T22:47:34.358Z,100.00
2023-05-15T22:52:59.331Z,100.00
2023-05-15T22:58:23.310Z,100.00
2023-05-15T23:03:51.351Z,100.00
2023-05-15T23:09:17.301Z,100.00
2023-05-15T23:14:42.307Z,100.00
2023-05-15T23:20:09.332Z,100.00
2023-05-15T23:25:34.345Z,100.00
2023-05-15T23:30:58.389Z,100.00
2023-05-15T23:36:26.353Z,100.00
2023-05-15T23:41:50.316Z,100.00
2023-05-15T23:47:15.349Z,100.00
2023-05-15T23:52:42.336Z,100.00
2023-05-15T23:58:07.407Z,100.00
